sensor_id;sensor_type;location;lat;lon;timestamp;P1;durP1;ratioP1;P2;durP2;ratioP2
33268;SDS011;19640;50.944;5.260;2022-10-17T00:01:08;77.22;;;8.27;;
33268;SDS011;19640;50.944;5.260;2022-10-17T00:03:34;45.58;;;7.40;;
33268;SDS011;19640;50.944;5.260;2022-10-17T00:06:08;8.50;;;5.40;;
33268;SDS011;19640;50.944;5.260;2022-10-17T00:08:35;45.72;;;6.55;;
33268;SDS011;19640;50.944;5.260;2022-10-17T00:11:02;10.52;;;4.63;;
33268;SDS011;19640;50.944;5.260;2022-10-17T00:13:31;17.25;;;5.10;;
33268;SDS011;19640;50.944;5.260;2022-10-17T00:15:56;17.40;;;6.53;;
33268;SDS011;19640;50.944;5.260;2022-10-17T00:18:22;38.63;;;5.28;;
33268;SDS011;19640;50.944;5.260;2022-10-17T00:20:48;6.53;;;4.55;;
33268;SDS011;19640;50.944;5.260;2022-10-17T00:23:14;26.15;;;5.55;;
33268;SDS011;19640;50.944;5.260;2022-10-17T00:25:40;25.40;;;5.30;;
33268;SDS011;19640;50.944;5.260;2022-10-17T00:28:12;24.75;;;7.35;;
33268;SDS011;19640;50.944;5.260;2022-10-17T00:30:38;9.63;;;5.47;;
33268;SDS011;19640;50.944;5.260;2022-10-17T00:33:04;137.27;;;7.20;;
33268;SDS011;19640;50.944;5.260;2022-10-17T00:35:30;64.28;;;7.20;;
33268;SDS011;19640;50.944;5.260;2022-10-17T00:37:56;195.55;;;8.90;;
33268;SDS011;19640;50.944;5.260;2022-10-17T00:40:22;87.70;;;6.65;;
33268;SDS011;19640;50.944;5.260;2022-10-17T00:42:48;61.25;;;7.35;;
33268;SDS011;19640;50.944;5.260;2022-10-17T00:45:26;19.17;;;5.63;;
33268;SDS011;19640;50.944;5.260;2022-10-17T00:47:55;8.35;;;4.80;;
33268;SDS011;19640;50.944;5.260;2022-10-17T00:50:25;25.05;;;5.18;;
33268;SDS011;19640;50.944;5.260;2022-10-17T00:52:52;10.80;;;6.90;;
33268;SDS011;19640;50.944;5.260;2022-10-17T00:55:21;8.80;;;6.13;;
33268;SDS011;19640;50.944;5.260;2022-10-17T00:57:49;7.00;;;5.75;;
33268;SDS011;19640;50.944;5.260;2022-10-17T01:00:16;11.75;;;5.95;;
33268;SDS011;19640;50.944;5.260;2022-10-17T01:02:43;8.23;;;6.20;;
33268;SDS011;19640;50.944;5.260;2022-10-17T01:05:09;9.98;;;6.53;;
33268;SDS011;19640;50.944;5.260;2022-10-17T01:07:35;9.65;;;6.18;;
33268;SDS011;19640;50.944;5.260;2022-10-17T01:10:03;7.97;;;5.43;;
33268;SDS011;19640;50.944;5.260;2022-10-17T01:15:13;10.13;;;5.85;;
33268;SDS011;19640;50.944;5.260;2022-10-17T01:31:52;10.05;;;6.47;;
33268;SDS011;19640;50.944;5.260;2022-10-17T01:34:30;7.72;;;5.70;;
33268;SDS011;19640;50.944;5.260;2022-10-17T01:42:23;9.55;;;6.05;;
33268;SDS011;19640;50.944;5.260;2022-10-17T01:47:26;11.90;;;6.85;;
33268;SDS011;19640;50.944;5.260;2022-10-17T01:49:55;11.82;;;7.15;;
33268;SDS011;19640;50.944;5.260;2022-10-17T01:52:39;11.97;;;8.07;;
33268;SDS011;19640;50.944;5.260;2022-10-17T01:58:09;12.25;;;8.98;;
33268;SDS011;19640;50.944;5.260;2022-10-17T02:00:36;21.45;;;8.07;;
33268;SDS011;19640;50.944;5.260;2022-10-17T02:03:06;12.05;;;8.45;;
33268;SDS011;19640;50.944;5.260;2022-10-17T02:05:38;9.13;;;7.95;;
33268;SDS011;19640;50.944;5.260;2022-10-17T02:08:06;13.70;;;8.75;;
33268;SDS011;19640;50.944;5.260;2022-10-17T02:10:35;14.18;;;9.18;;
33268;SDS011;19640;50.944;5.260;2022-10-17T02:13:34;9.32;;;7.70;;
33268;SDS011;19640;50.944;5.260;2022-10-17T02:19:03;8.68;;;6.72;;
33268;SDS011;19640;50.944;5.260;2022-10-17T02:24:29;11.15;;;8.65;;
33268;SDS011;19640;50.944;5.260;2022-10-17T02:27:14;10.55;;;6.78;;
33268;SDS011;19640;50.944;5.260;2022-10-17T02:30:10;14.25;;;8.07;;
33268;SDS011;19640;50.944;5.260;2022-10-17T02:33:08;11.25;;;7.22;;
33268;SDS011;19640;50.944;5.260;2022-10-17T02:35:44;12.75;;;7.40;;
33268;SDS011;19640;50.944;5.260;2022-10-17T02:38:13;8.90;;;7.78;;
33268;SDS011;19640;50.944;5.260;2022-10-17T02:40:42;12.48;;;6.93;;
33268;SDS011;19640;50.944;5.260;2022-10-17T02:43:10;8.43;;;6.22;;
33268;SDS011;19640;50.944;5.260;2022-10-17T02:45:36;12.82;;;6.88;;
33268;SDS011;19640;50.944;5.260;2022-10-17T02:48:04;10.55;;;8.15;;
33268;SDS011;19640;50.944;5.260;2022-10-17T02:50:42;11.85;;;8.73;;
33268;SDS011;19640;50.944;5.260;2022-10-17T02:53:30;10.57;;;9.20;;
33268;SDS011;19640;50.944;5.260;2022-10-17T02:56:03;11.13;;;7.43;;
33268;SDS011;19640;50.944;5.260;2022-10-17T02:58:32;10.05;;;7.65;;
33268;SDS011;19640;50.944;5.260;2022-10-17T03:01:00;18.85;;;8.30;;
33268;SDS011;19640;50.944;5.260;2022-10-17T03:03:29;8.82;;;7.18;;
33268;SDS011;19640;50.944;5.260;2022-10-17T03:05:56;10.18;;;7.63;;
33268;SDS011;19640;50.944;5.260;2022-10-17T03:08:21;13.15;;;7.78;;
33268;SDS011;19640;50.944;5.260;2022-10-17T03:10:48;9.80;;;6.47;;
33268;SDS011;19640;50.944;5.260;2022-10-17T03:13:14;9.55;;;5.90;;
33268;SDS011;19640;50.944;5.260;2022-10-17T03:15:40;11.85;;;5.65;;
33268;SDS011;19640;50.944;5.260;2022-10-17T03:18:06;32.88;;;6.68;;
33268;SDS011;19640;50.944;5.260;2022-10-17T03:20:31;8.60;;;6.15;;
33268;SDS011;19640;50.944;5.260;2022-10-17T03:22:57;16.80;;;5.60;;
33268;SDS011;19640;50.944;5.260;2022-10-17T03:25:23;8.57;;;5.30;;
33268;SDS011;19640;50.944;5.260;2022-10-17T03:27:49;9.20;;;3.95;;
33268;SDS011;19640;50.944;5.260;2022-10-17T03:30:15;14.10;;;5.53;;
33268;SDS011;19640;50.944;5.260;2022-10-17T03:32:41;9.90;;;6.18;;
33268;SDS011;19640;50.944;5.260;2022-10-17T03:35:06;10.35;;;7.85;;
33268;SDS011;19640;50.944;5.260;2022-10-17T03:37:32;8.13;;;7.32;;
33268;SDS011;19640;50.944;5.260;2022-10-17T03:39:57;9.50;;;8.18;;
33268;SDS011;19640;50.944;5.260;2022-10-17T03:42:23;16.75;;;8.98;;
33268;SDS011;19640;50.944;5.260;2022-10-17T03:44:49;10.07;;;8.80;;
33268;SDS011;19640;50.944;5.260;2022-10-17T03:47:14;9.32;;;8.13;;
33268;SDS011;19640;50.944;5.260;2022-10-17T03:49:40;11.13;;;8.20;;
33268;SDS011;19640;50.944;5.260;2022-10-17T03:52:09;9.70;;;6.78;;
33268;SDS011;19640;50.944;5.260;2022-10-17T03:54:36;8.77;;;6.53;;
33268;SDS011;19640;50.944;5.260;2022-10-17T03:57:02;8.63;;;7.72;;
33268;SDS011;19640;50.944;5.260;2022-10-17T03:59:27;13.32;;;7.68;;
33268;SDS011;19640;50.944;5.260;2022-10-17T04:01:53;11.23;;;7.18;;
33268;SDS011;19640;50.944;5.260;2022-10-17T04:04:18;13.35;;;7.80;;
33268;SDS011;19640;50.944;5.260;2022-10-17T04:06:45;10.88;;;7.68;;
33268;SDS011;19640;50.944;5.260;2022-10-17T04:09:11;8.77;;;7.88;;
33268;SDS011;19640;50.944;5.260;2022-10-17T04:11:36;10.20;;;7.80;;
33268;SDS011;19640;50.944;5.260;2022-10-17T04:14:02;8.07;;;7.22;;
33268;SDS011;19640;50.944;5.260;2022-10-17T04:16:28;14.20;;;8.77;;
33268;SDS011;19640;50.944;5.260;2022-10-17T04:18:54;12.85;;;9.32;;
33268;SDS011;19640;50.944;5.260;2022-10-17T04:21:22;10.60;;;7.75;;
33268;SDS011;19640;50.944;5.260;2022-10-17T04:23:56;14.60;;;8.00;;
33268;SDS011;19640;50.944;5.260;2022-10-17T04:26:23;8.63;;;7.55;;
33268;SDS011;19640;50.944;5.260;2022-10-17T04:28:49;9.02;;;7.50;;
33268;SDS011;19640;50.944;5.260;2022-10-17T04:31:15;8.60;;;7.32;;
33268;SDS011;19640;50.944;5.260;2022-10-17T04:33:41;8.18;;;7.43;;
33268;SDS011;19640;50.944;5.260;2022-10-17T04:36:10;8.43;;;7.50;;
33268;SDS011;19640;50.944;5.260;2022-10-17T04:38:37;8.60;;;6.70;;
33268;SDS011;19640;50.944;5.260;2022-10-17T04:41:05;9.63;;;7.18;;
33268;SDS011;19640;50.944;5.260;2022-10-17T04:43:33;7.30;;;6.70;;
33268;SDS011;19640;50.944;5.260;2022-10-17T04:46:02;12.70;;;7.28;;
33268;SDS011;19640;50.944;5.260;2022-10-17T04:48:29;13.88;;;7.07;;
33268;SDS011;19640;50.944;5.260;2022-10-17T04:50:57;10.50;;;7.32;;
33268;SDS011;19640;50.944;5.260;2022-10-17T04:53:23;9.77;;;7.72;;
33268;SDS011;19640;50.944;5.260;2022-10-17T04:55:51;10.75;;;7.50;;
33268;SDS011;19640;50.944;5.260;2022-10-17T04:58:16;11.98;;;7.60;;
33268;SDS011;19640;50.944;5.260;2022-10-17T05:00:43;10.65;;;8.38;;
33268;SDS011;19640;50.944;5.260;2022-10-17T05:03:08;9.85;;;7.82;;
33268;SDS011;19640;50.944;5.260;2022-10-17T05:05:38;10.13;;;8.40;;
33268;SDS011;19640;50.944;5.260;2022-10-17T05:08:04;11.57;;;8.80;;
33268;SDS011;19640;50.944;5.260;2022-10-17T05:10:43;13.23;;;7.68;;
33268;SDS011;19640;50.944;5.260;2022-10-17T05:13:12;12.52;;;8.80;;
33268;SDS011;19640;50.944;5.260;2022-10-17T05:15:38;11.98;;;8.82;;
33268;SDS011;19640;50.944;5.260;2022-10-17T05:18:04;11.27;;;8.40;;
33268;SDS011;19640;50.944;5.260;2022-10-17T05:20:31;19.17;;;8.05;;
33268;SDS011;19640;50.944;5.260;2022-10-17T05:22:57;13.38;;;8.95;;
33268;SDS011;19640;50.944;5.260;2022-10-17T05:25:23;12.52;;;9.18;;
33268;SDS011;19640;50.944;5.260;2022-10-17T05:27:49;14.52;;;9.35;;
33268;SDS011;19640;50.944;5.260;2022-10-17T05:30:15;11.18;;;9.15;;
33268;SDS011;19640;50.944;5.260;2022-10-17T05:32:41;11.75;;;8.75;;
33268;SDS011;19640;50.944;5.260;2022-10-17T05:35:07;10.18;;;7.97;;
33268;SDS011;19640;50.944;5.260;2022-10-17T05:37:32;12.93;;;9.18;;
33268;SDS011;19640;50.944;5.260;2022-10-17T05:39:58;14.60;;;9.10;;
33268;SDS011;19640;50.944;5.260;2022-10-17T05:42:24;11.65;;;7.93;;
33268;SDS011;19640;50.944;5.260;2022-10-17T05:44:49;11.52;;;8.48;;
33268;SDS011;19640;50.944;5.260;2022-10-17T05:47:15;8.60;;;7.72;;
33268;SDS011;19640;50.944;5.260;2022-10-17T05:49:40;9.50;;;8.23;;
33268;SDS011;19640;50.944;5.260;2022-10-17T05:52:06;11.48;;;8.15;;
33268;SDS011;19640;50.944;5.260;2022-10-17T05:54:32;9.13;;;8.23;;
33268;SDS011;19640;50.944;5.260;2022-10-17T05:56:57;17.25;;;7.85;;
33268;SDS011;19640;50.944;5.260;2022-10-17T05:59:23;10.38;;;7.32;;
33268;SDS011;19640;50.944;5.260;2022-10-17T06:01:50;11.75;;;7.45;;
33268;SDS011;19640;50.944;5.260;2022-10-17T06:04:16;9.93;;;7.75;;
33268;SDS011;19640;50.944;5.260;2022-10-17T06:06:42;20.27;;;7.63;;
33268;SDS011;19640;50.944;5.260;2022-10-17T06:09:08;14.60;;;8.27;;
33268;SDS011;19640;50.944;5.260;2022-10-17T06:11:34;8.55;;;6.95;;
33268;SDS011;19640;50.944;5.260;2022-10-17T06:14:01;9.52;;;7.03;;
33268;SDS011;19640;50.944;5.260;2022-10-17T06:16:26;7.18;;;6.50;;
33268;SDS011;19640;50.944;5.260;2022-10-17T06:18:52;15.00;;;6.85;;
33268;SDS011;19640;50.944;5.260;2022-10-17T06:21:19;10.82;;;6.30;;
33268;SDS011;19640;50.944;5.260;2022-10-17T06:23:48;6.93;;;6.22;;
33268;SDS011;19640;50.944;5.260;2022-10-17T06:26:13;11.05;;;6.22;;
33268;SDS011;19640;50.944;5.260;2022-10-17T06:28:39;8.43;;;5.78;;
33268;SDS011;19640;50.944;5.260;2022-10-17T06:31:09;8.50;;;5.55;;
33268;SDS011;19640;50.944;5.260;2022-10-17T06:33:36;7.78;;;6.40;;
33268;SDS011;19640;50.944;5.260;2022-10-17T06:36:03;6.55;;;5.72;;
33268;SDS011;19640;50.944;5.260;2022-10-17T06:38:30;11.35;;;5.70;;
33268;SDS011;19640;50.944;5.260;2022-10-17T06:41:06;8.30;;;6.00;;
33268;SDS011;19640;50.944;5.260;2022-10-17T06:43:38;6.22;;;5.50;;
33268;SDS011;19640;50.944;5.260;2022-10-17T06:46:10;7.25;;;5.57;;
33268;SDS011;19640;50.944;5.260;2022-10-17T06:48:36;8.25;;;5.40;;
33268;SDS011;19640;50.944;5.260;2022-10-17T06:51:02;11.85;;;5.60;;
33268;SDS011;19640;50.944;5.260;2022-10-17T06:53:30;8.52;;;5.28;;
33268;SDS011;19640;50.944;5.260;2022-10-17T06:55:58;6.57;;;5.40;;
33268;SDS011;19640;50.944;5.260;2022-10-17T06:58:28;8.20;;;5.57;;
33268;SDS011;19640;50.944;5.260;2022-10-17T07:00:59;8.48;;;4.95;;
33268;SDS011;19640;50.944;5.260;2022-10-17T07:03:32;9.07;;;4.90;;
33268;SDS011;19640;50.944;5.260;2022-10-17T07:05:58;14.18;;;4.70;;
33268;SDS011;19640;50.944;5.260;2022-10-17T07:08:24;10.27;;;4.65;;
33268;SDS011;19640;50.944;5.260;2022-10-17T07:10:50;5.30;;;4.30;;
33268;SDS011;19640;50.944;5.260;2022-10-17T07:13:17;5.88;;;4.05;;
33268;SDS011;19640;50.944;5.260;2022-10-17T07:15:43;6.03;;;4.05;;
33268;SDS011;19640;50.944;5.260;2022-10-17T07:18:09;8.65;;;4.38;;
33268;SDS011;19640;50.944;5.260;2022-10-17T07:20:35;7.10;;;3.65;;
33268;SDS011;19640;50.944;5.260;2022-10-17T07:23:01;10.05;;;4.07;;
33268;SDS011;19640;50.944;5.260;2022-10-17T07:25:27;5.57;;;3.38;;
33268;SDS011;19640;50.944;5.260;2022-10-17T07:27:52;4.63;;;3.65;;
33268;SDS011;19640;50.944;5.260;2022-10-17T07:30:18;5.55;;;3.60;;
33268;SDS011;19640;50.944;5.260;2022-10-17T07:32:44;5.55;;;3.63;;
33268;SDS011;19640;50.944;5.260;2022-10-17T07:35:10;7.45;;;3.15;;
33268;SDS011;19640;50.944;5.260;2022-10-17T07:37:37;8.10;;;3.90;;
33268;SDS011;19640;50.944;5.260;2022-10-17T07:40:03;3.80;;;2.65;;
33268;SDS011;19640;50.944;5.260;2022-10-17T07:42:30;4.68;;;2.75;;
33268;SDS011;19640;50.944;5.260;2022-10-17T07:44:57;6.80;;;3.67;;
33268;SDS011;19640;50.944;5.260;2022-10-17T07:47:22;7.18;;;3.40;;
33268;SDS011;19640;50.944;5.260;2022-10-17T07:49:48;4.75;;;3.28;;
33268;SDS011;19640;50.944;5.260;2022-10-17T07:52:14;3.70;;;2.70;;
33268;SDS011;19640;50.944;5.260;2022-10-17T07:54:41;8.18;;;3.47;;
33268;SDS011;19640;50.944;5.260;2022-10-17T07:57:06;8.25;;;3.28;;
33268;SDS011;19640;50.944;5.260;2022-10-17T07:59:33;7.72;;;4.38;;
33268;SDS011;19640;50.944;5.260;2022-10-17T08:01:59;7.65;;;3.53;;
33268;SDS011;19640;50.944;5.260;2022-10-17T08:04:25;7.78;;;3.42;;
33268;SDS011;19640;50.944;5.260;2022-10-17T08:06:52;5.68;;;3.58;;
33268;SDS011;19640;50.944;5.260;2022-10-17T08:09:17;8.27;;;3.17;;
33268;SDS011;19640;50.944;5.260;2022-10-17T08:11:43;6.85;;;2.88;;
33268;SDS011;19640;50.944;5.260;2022-10-17T08:14:10;4.45;;;2.88;;
33268;SDS011;19640;50.944;5.260;2022-10-17T08:16:36;5.80;;;3.00;;
33268;SDS011;19640;50.944;5.260;2022-10-17T08:19:02;13.00;;;3.10;;
33268;SDS011;19640;50.944;5.260;2022-10-17T08:21:28;4.63;;;3.25;;
33268;SDS011;19640;50.944;5.260;2022-10-17T08:23:54;4.80;;;3.00;;
33268;SDS011;19640;50.944;5.260;2022-10-17T08:26:20;5.20;;;3.35;;
33268;SDS011;19640;50.944;5.260;2022-10-17T08:28:46;4.90;;;3.20;;
33268;SDS011;19640;50.944;5.260;2022-10-17T08:31:14;6.13;;;2.70;;
33268;SDS011;19640;50.944;5.260;2022-10-17T08:33:44;7.22;;;2.75;;
33268;SDS011;19640;50.944;5.260;2022-10-17T08:36:12;5.75;;;2.95;;
33268;SDS011;19640;50.944;5.260;2022-10-17T08:38:39;7.10;;;3.00;;
33268;SDS011;19640;50.944;5.260;2022-10-17T08:44:13;8.50;;;3.63;;
33268;SDS011;19640;50.944;5.260;2022-10-17T08:46:42;4.07;;;3.10;;
33268;SDS011;19640;50.944;5.260;2022-10-17T08:49:14;5.30;;;3.28;;
33268;SDS011;19640;50.944;5.260;2022-10-17T08:51:57;3.88;;;2.67;;
33268;SDS011;19640;50.944;5.260;2022-10-17T08:54:37;5.72;;;3.33;;
33268;SDS011;19640;50.944;5.260;2022-10-17T08:57:15;4.97;;;3.25;;
33268;SDS011;19640;50.944;5.260;2022-10-17T08:59:42;5.22;;;2.80;;
33268;SDS011;19640;50.944;5.260;2022-10-17T09:20:53;4.97;;;2.78;;
33268;SDS011;19640;50.944;5.260;2022-10-17T09:23:30;8.27;;;3.00;;
33268;SDS011;19640;50.944;5.260;2022-10-17T09:26:01;4.75;;;3.25;;
33268;SDS011;19640;50.944;5.260;2022-10-17T09:28:28;7.55;;;3.40;;
33268;SDS011;19640;50.944;5.260;2022-10-17T09:31:02;4.63;;;3.20;;
33268;SDS011;19640;50.944;5.260;2022-10-17T09:33:39;3.78;;;3.33;;
33268;SDS011;19640;50.944;5.260;2022-10-17T09:36:16;3.58;;;3.25;;
33268;SDS011;19640;50.944;5.260;2022-10-17T09:38:48;4.85;;;4.35;;
33268;SDS011;19640;50.944;5.260;2022-10-17T09:43:55;6.10;;;4.13;;
33268;SDS011;19640;50.944;5.260;2022-10-17T09:46:28;11.32;;;4.22;;
33268;SDS011;19640;50.944;5.260;2022-10-17T09:49:07;9.15;;;3.60;;
33268;SDS011;19640;50.944;5.260;2022-10-17T09:51:38;5.80;;;4.28;;
33268;SDS011;19640;50.944;5.260;2022-10-17T09:54:07;4.40;;;4.00;;
33268;SDS011;19640;50.944;5.260;2022-10-17T09:56:55;7.35;;;4.97;;
33268;SDS011;19640;50.944;5.260;2022-10-17T09:59:32;7.72;;;4.35;;
33268;SDS011;19640;50.944;5.260;2022-10-17T10:02:14;11.25;;;4.47;;
33268;SDS011;19640;50.944;5.260;2022-10-17T10:04:51;7.75;;;4.28;;
33268;SDS011;19640;50.944;5.260;2022-10-17T10:07:27;8.63;;;4.75;;
33268;SDS011;19640;50.944;5.260;2022-10-17T10:09:54;5.00;;;4.55;;
33268;SDS011;19640;50.944;5.260;2022-10-17T10:12:32;7.93;;;3.95;;
33268;SDS011;19640;50.944;5.260;2022-10-17T10:14:59;8.23;;;5.03;;
33268;SDS011;19640;50.944;5.260;2022-10-17T10:17:36;6.38;;;4.70;;
33268;SDS011;19640;50.944;5.260;2022-10-17T10:20:51;5.95;;;4.97;;
33268;SDS011;19640;50.944;5.260;2022-10-17T10:23:05;14.18;;;5.00;;
33268;SDS011;19640;50.944;5.260;2022-10-17T10:25:53;8.77;;;4.88;;
33268;SDS011;19640;50.944;5.260;2022-10-17T10:28:21;6.43;;;4.13;;
33268;SDS011;19640;50.944;5.260;2022-10-17T10:30:50;7.18;;;3.60;;
33268;SDS011;19640;50.944;5.260;2022-10-17T10:33:18;7.65;;;3.88;;
33268;SDS011;19640;50.944;5.260;2022-10-17T10:35:53;6.95;;;3.50;;
33268;SDS011;19640;50.944;5.260;2022-10-17T10:38:28;5.63;;;4.22;;
33268;SDS011;19640;50.944;5.260;2022-10-17T10:41:01;8.65;;;3.42;;
33268;SDS011;19640;50.944;5.260;2022-10-17T10:43:47;6.13;;;3.88;;
33268;SDS011;19640;50.944;5.260;2022-10-17T10:46:21;7.90;;;3.70;;
33268;SDS011;19640;50.944;5.260;2022-10-17T10:48:59;8.60;;;3.60;;
33268;SDS011;19640;50.944;5.260;2022-10-17T10:51:27;4.95;;;3.97;;
33268;SDS011;19640;50.944;5.260;2022-10-17T10:54:09;4.57;;;3.75;;
33268;SDS011;19640;50.944;5.260;2022-10-17T10:56:44;6.85;;;3.72;;
33268;SDS011;19640;50.944;5.260;2022-10-17T10:59:14;5.95;;;3.30;;
33268;SDS011;19640;50.944;5.260;2022-10-17T11:04:46;4.95;;;3.28;;
33268;SDS011;19640;50.944;5.260;2022-10-17T11:07:26;6.65;;;3.78;;
33268;SDS011;19640;50.944;5.260;2022-10-17T11:12:47;5.03;;;3.30;;
33268;SDS011;19640;50.944;5.260;2022-10-17T11:15:26;3.90;;;2.75;;
33268;SDS011;19640;50.944;5.260;2022-10-17T11:23:45;5.20;;;2.90;;
33268;SDS011;19640;50.944;5.260;2022-10-17T11:26:17;5.50;;;2.50;;
33268;SDS011;19640;50.944;5.260;2022-10-17T11:28:51;2.55;;;2.35;;
33268;SDS011;19640;50.944;5.260;2022-10-17T11:31:18;3.42;;;2.60;;
33268;SDS011;19640;50.944;5.260;2022-10-17T11:33:48;6.20;;;2.80;;
33268;SDS011;19640;50.944;5.260;2022-10-17T11:36:14;9.18;;;2.72;;
33268;SDS011;19640;50.944;5.260;2022-10-17T11:38:44;5.90;;;3.17;;
33268;SDS011;19640;50.944;5.260;2022-10-17T11:41:13;8.05;;;2.63;;
33268;SDS011;19640;50.944;5.260;2022-10-17T11:43:53;8.95;;;2.78;;
33268;SDS011;19640;50.944;5.260;2022-10-17T11:46:27;4.55;;;2.40;;
33268;SDS011;19640;50.944;5.260;2022-10-17T11:51:49;8.25;;;2.78;;
33268;SDS011;19640;50.944;5.260;2022-10-17T11:54:23;5.05;;;2.38;;
33268;SDS011;19640;50.944;5.260;2022-10-17T11:57:09;6.22;;;2.58;;
33268;SDS011;19640;50.944;5.260;2022-10-17T11:59:56;2.80;;;2.10;;
33268;SDS011;19640;50.944;5.260;2022-10-17T12:05:19;8.32;;;2.30;;
33268;SDS011;19640;50.944;5.260;2022-10-17T12:08:06;7.28;;;2.92;;
33268;SDS011;19640;50.944;5.260;2022-10-17T12:10:44;9.07;;;2.63;;
33268;SDS011;19640;50.944;5.260;2022-10-17T12:18:46;4.22;;;2.80;;
33268;SDS011;19640;50.944;5.260;2022-10-17T12:35:21;10.20;;;3.25;;
33268;SDS011;19640;50.944;5.260;2022-10-17T12:45:51;4.45;;;3.80;;
33268;SDS011;19640;50.944;5.260;2022-10-17T12:51:09;5.47;;;3.53;;
33268;SDS011;19640;50.944;5.260;2022-10-17T12:56:11;4.20;;;3.75;;
33268;SDS011;19640;50.944;5.260;2022-10-17T12:58:41;6.30;;;3.55;;
33268;SDS011;19640;50.944;5.260;2022-10-17T13:01:15;5.68;;;3.90;;
33268;SDS011;19640;50.944;5.260;2022-10-17T13:03:45;4.95;;;3.60;;
33268;SDS011;19640;50.944;5.260;2022-10-17T13:06:18;6.93;;;3.88;;
33268;SDS011;19640;50.944;5.260;2022-10-17T13:08:48;11.32;;;4.00;;
33268;SDS011;19640;50.944;5.260;2022-10-17T13:11:23;7.15;;;4.80;;
33268;SDS011;19640;50.944;5.260;2022-10-17T13:13:53;8.07;;;4.82;;
33268;SDS011;19640;50.944;5.260;2022-10-17T13:16:32;10.13;;;4.80;;
33268;SDS011;19640;50.944;5.260;2022-10-17T13:19:00;5.72;;;5.00;;
33268;SDS011;19640;50.944;5.260;2022-10-17T13:21:26;9.43;;;4.85;;
33268;SDS011;19640;50.944;5.260;2022-10-17T13:23:53;7.45;;;4.95;;
33268;SDS011;19640;50.944;5.260;2022-10-17T13:26:26;6.72;;;4.97;;
33268;SDS011;19640;50.944;5.260;2022-10-17T13:28:59;6.28;;;4.60;;
33268;SDS011;19640;50.944;5.260;2022-10-17T13:31:31;7.10;;;5.10;;
33268;SDS011;19640;50.944;5.260;2022-10-17T13:34:03;7.88;;;5.40;;
33268;SDS011;19640;50.944;5.260;2022-10-17T13:36:30;7.72;;;5.70;;
33268;SDS011;19640;50.944;5.260;2022-10-17T13:38:58;8.55;;;4.53;;
33268;SDS011;19640;50.944;5.260;2022-10-17T13:41:29;7.40;;;5.25;;
33268;SDS011;19640;50.944;5.260;2022-10-17T13:43:58;8.57;;;5.15;;
33268;SDS011;19640;50.944;5.260;2022-10-17T13:46:29;8.10;;;5.15;;
33268;SDS011;19640;50.944;5.260;2022-10-17T13:48:57;7.03;;;4.78;;
33268;SDS011;19640;50.944;5.260;2022-10-17T13:51:25;10.57;;;5.28;;
33268;SDS011;19640;50.944;5.260;2022-10-17T13:53:51;13.27;;;5.13;;
33268;SDS011;19640;50.944;5.260;2022-10-17T13:56:19;8.40;;;5.28;;
33268;SDS011;19640;50.944;5.260;2022-10-17T14:01:21;7.90;;;5.70;;
33268;SDS011;19640;50.944;5.260;2022-10-17T14:03:48;9.45;;;5.57;;
33268;SDS011;19640;50.944;5.260;2022-10-17T14:11:21;8.15;;;5.60;;
33268;SDS011;19640;50.944;5.260;2022-10-17T14:13:53;7.70;;;5.40;;
33268;SDS011;19640;50.944;5.260;2022-10-17T14:16:21;8.73;;;5.90;;
33268;SDS011;19640;50.944;5.260;2022-10-17T14:18:48;10.20;;;5.35;;
33268;SDS011;19640;50.944;5.260;2022-10-17T14:21:20;9.65;;;5.47;;
33268;SDS011;19640;50.944;5.260;2022-10-17T14:24:11;8.85;;;5.95;;
33268;SDS011;19640;50.944;5.260;2022-10-17T14:26:45;8.48;;;5.10;;
33268;SDS011;19640;50.944;5.260;2022-10-17T14:29:23;10.05;;;5.82;;
33268;SDS011;19640;50.944;5.260;2022-10-17T14:31:57;7.55;;;5.45;;
33268;SDS011;19640;50.944;5.260;2022-10-17T14:34:27;9.35;;;5.50;;
33268;SDS011;19640;50.944;5.260;2022-10-17T14:36:56;6.88;;;6.18;;
33268;SDS011;19640;50.944;5.260;2022-10-17T14:39:23;7.72;;;6.35;;
33268;SDS011;19640;50.944;5.260;2022-10-17T14:41:50;7.85;;;6.07;;
33268;SDS011;19640;50.944;5.260;2022-10-17T14:46:53;9.52;;;6.68;;
33268;SDS011;19640;50.944;5.260;2022-10-17T14:49:37;13.98;;;6.97;;
33268;SDS011;19640;50.944;5.260;2022-10-17T14:54:48;9.07;;;7.38;;
33268;SDS011;19640;50.944;5.260;2022-10-17T14:59:54;10.25;;;7.50;;
33268;SDS011;19640;50.944;5.260;2022-10-17T15:02:24;12.05;;;7.00;;
33268;SDS011;19640;50.944;5.260;2022-10-17T15:04:51;15.93;;;7.80;;
33268;SDS011;19640;50.944;5.260;2022-10-17T15:07:18;11.90;;;7.22;;
33268;SDS011;19640;50.944;5.260;2022-10-17T15:09:47;7.90;;;7.07;;
33268;SDS011;19640;50.944;5.260;2022-10-17T15:12:17;12.02;;;6.45;;
33268;SDS011;19640;50.944;5.260;2022-10-17T15:14:46;9.15;;;7.03;;
33268;SDS011;19640;50.944;5.260;2022-10-17T15:17:26;13.07;;;7.15;;
33268;SDS011;19640;50.944;5.260;2022-10-17T15:19:53;10.23;;;6.53;;
33268;SDS011;19640;50.944;5.260;2022-10-17T15:22:20;9.15;;;7.03;;
33268;SDS011;19640;50.944;5.260;2022-10-17T15:24:46;15.90;;;7.22;;
33268;SDS011;19640;50.944;5.260;2022-10-17T15:27:16;10.50;;;6.70;;
33268;SDS011;19640;50.944;5.260;2022-10-17T15:29:44;6.90;;;5.82;;
33268;SDS011;19640;50.944;5.260;2022-10-17T15:32:10;13.10;;;6.75;;
33268;SDS011;19640;50.944;5.260;2022-10-17T15:34:36;10.07;;;6.80;;
33268;SDS011;19640;50.944;5.260;2022-10-17T15:37:01;16.95;;;8.15;;
33268;SDS011;19640;50.944;5.260;2022-10-17T15:39:28;7.13;;;6.43;;
33268;SDS011;19640;50.944;5.260;2022-10-17T15:41:54;9.15;;;7.03;;
33268;SDS011;19640;50.944;5.260;2022-10-17T15:44:20;10.57;;;7.25;;
33268;SDS011;19640;50.944;5.260;2022-10-17T15:46:46;10.43;;;6.85;;
33268;SDS011;19640;50.944;5.260;2022-10-17T15:49:13;10.60;;;6.43;;
33268;SDS011;19640;50.944;5.260;2022-10-17T15:51:41;6.28;;;5.63;;
33268;SDS011;19640;50.944;5.260;2022-10-17T15:54:07;8.05;;;6.25;;
33268;SDS011;19640;50.944;5.260;2022-10-17T15:56:37;10.55;;;6.07;;
33268;SDS011;19640;50.944;5.260;2022-10-17T15:59:12;8.75;;;5.90;;
33268;SDS011;19640;50.944;5.260;2022-10-17T16:01:40;9.07;;;6.22;;
33268;SDS011;19640;50.944;5.260;2022-10-17T16:04:08;10.52;;;5.57;;
33268;SDS011;19640;50.944;5.260;2022-10-17T16:06:37;7.50;;;5.25;;
33268;SDS011;19640;50.944;5.260;2022-10-17T16:09:03;8.82;;;5.28;;
33268;SDS011;19640;50.944;5.260;2022-10-17T16:11:36;7.15;;;5.43;;
33268;SDS011;19640;50.944;5.260;2022-10-17T16:14:04;6.68;;;5.50;;
33268;SDS011;19640;50.944;5.260;2022-10-17T16:16:31;15.13;;;6.03;;
33268;SDS011;19640;50.944;5.260;2022-10-17T16:18:57;9.30;;;4.90;;
33268;SDS011;19640;50.944;5.260;2022-10-17T16:21:24;7.32;;;5.75;;
33268;SDS011;19640;50.944;5.260;2022-10-17T16:23:52;5.90;;;5.35;;
33268;SDS011;19640;50.944;5.260;2022-10-17T16:26:18;7.85;;;4.90;;
33268;SDS011;19640;50.944;5.260;2022-10-17T16:28:44;7.13;;;4.55;;
33268;SDS011;19640;50.944;5.260;2022-10-17T16:31:18;5.40;;;4.35;;
33268;SDS011;19640;50.944;5.260;2022-10-17T16:33:50;5.60;;;5.10;;
33268;SDS011;19640;50.944;5.260;2022-10-17T16:36:18;6.50;;;4.40;;
33268;SDS011;19640;50.944;5.260;2022-10-17T16:38:44;9.25;;;4.43;;
33268;SDS011;19640;50.944;5.260;2022-10-17T16:41:14;6.50;;;4.53;;
33268;SDS011;19640;50.944;5.260;2022-10-17T16:43:49;8.15;;;4.00;;
33268;SDS011;19640;50.944;5.260;2022-10-17T16:46:16;8.77;;;4.28;;
33268;SDS011;19640;50.944;5.260;2022-10-17T16:48:42;6.03;;;3.75;;
33268;SDS011;19640;50.944;5.260;2022-10-17T16:51:09;6.65;;;3.58;;
33268;SDS011;19640;50.944;5.260;2022-10-17T16:53:36;3.67;;;3.30;;
33268;SDS011;19640;50.944;5.260;2022-10-17T16:56:04;9.57;;;4.10;;
33268;SDS011;19640;50.944;5.260;2022-10-17T16:58:31;5.78;;;3.47;;
33268;SDS011;19640;50.944;5.260;2022-10-17T17:01:00;6.95;;;3.10;;